Time;durP1;ratioP1;P1;durP2;ratioP2;P2;SDS_P1;SDS_P2;PMS_P1;PMS_P2;Temp;Humidity;BMP_temperature;BMP_pressure;BME280_temperature;BME280_humidity;BME280_pressure;Samples;Min_cycle;Max_cycle;Signal;HPM_P1;HPM_P2
2022/05/29 00:01:57;;;;;;;8.90;5.68;;;8.20;99.90;;;;;;5005464;28;20434;-75
2022/05/29 00:04:23;;;;;;;8.48;4.70;;;8.10;99.90;;;;;;5015250;28;20492;-76
2022/05/29 00:06:54;;;;;;;9.52;5.50;;;8.00;99.90;;;;;;5010546;28;20057;-76
2022/05/29 00:09:43;;;;;;;7.80;5.22;;;8.00;99.90;;;;;;5002926;28;20037;-76
2022/05/29 00:12:10;;;;;;;7.03;4.55;;;8.00;99.90;;;;;;5013135;28;20064;-75
2022/05/29 00:14:39;;;;;;;8.25;5.38;;;7.80;99.90;;;;;;5014079;28;20240;-75
2022/05/29 00:17:05;;;;;;;7.55;4.88;;;7.80;99.90;;;;;;5011529;28;20022;-75
2022/05/29 00:19:30;;;;;;;6.88;4.53;;;7.70;99.90;;;;;;5003277;28;20055;-75
2022/05/29 00:21:56;;;;;;;9.63;5.43;;;7.70;99.90;;;;;;5024776;28;20480;-76
2022/05/29 00:24:23;;;;;;;8.98;5.85;;;7.60;99.90;;;;;;5016475;28;20045;-76
2022/05/29 00:26:49;;;;;;;10.38;4.45;;;7.60;99.90;;;;;;5002722;28;20048;-76
2022/05/29 00:29:15;;;;;;;8.90;4.03;;;7.60;99.90;;;;;;5009791;28;20418;-76
2022/05/29 00:31:41;;;;;;;9.48;3.88;;;7.50;99.90;;;;;;5013043;28;20076;-76
2022/05/29 00:34:06;;;;;;;8.98;4.13;;;7.40;99.90;;;;;;5031442;28;20126;-75
2022/05/29 00:36:36;;;;;;;5.10;3.95;;;7.40;99.90;;;;;;5014135;28;20572;-75
2022/05/29 00:39:02;;;;;;;9.00;4.20;;;7.30;99.90;;;;;;5030519;28;20503;-76
2022/05/29 00:41:31;;;;;;;7.35;3.70;;;7.30;99.90;;;;;;5016983;28;20037;-75
2022/05/29 00:44:20;;;;;;;8.27;3.85;;;7.30;99.90;;;;;;5012054;28;20511;-75
2022/05/29 00:46:48;;;;;;;7.38;3.42;;;7.20;99.90;;;;;;5010984;28;20042;-75
2022/05/29 00:49:16;;;;;;;7.28;3.97;;;7.10;99.90;;;;;;5006485;28;20120;-75
2022/05/29 00:51:49;;;;;;;4.15;3.75;;;7.10;99.90;;;;;;5014380;28;20042;-75
2022/05/29 00:54:16;;;;;;;7.30;4.05;;;7.10;99.90;;;;;;5019362;28;20144;-75
2022/05/29 00:56:42;;;;;;;7.45;3.40;;;7.10;99.90;;;;;;5013385;28;20631;-75
2022/05/29 00:59:17;;;;;;;11.80;4.50;;;7.10;99.90;;;;;;5024587;28;20033;-75
2022/05/29 01:01:43;;;;;;;6.50;3.60;;;7.00;99.90;;;;;;5018867;28;20048;-75
2022/05/29 01:04:10;;;;;;;6.55;3.40;;;7.00;99.90;;;;;;5019648;28;20666;-75
2022/05/29 01:06:36;;;;;;;6.85;3.28;;;7.00;99.90;;;;;;5010174;28;20026;-75
2022/05/29 01:09:05;;;;;;;9.10;3.65;;;6.90;99.90;;;;;;5003764;28;20084;-75
2022/05/29 01:11:47;;;;;;;5.65;3.70;;;6.90;99.90;;;;;;5011779;28;20069;-76
2022/05/29 01:14:27;;;;;;;;;;;6.80;99.90;;;;;;5001226;28;20069;-75
2022/05/29 01:17:17;;;;;;;10.23;4.00;;;6.70;99.90;;;;;;5014436;28;19912;-76
2022/05/29 01:19:49;;;;;;;7.00;4.03;;;6.70;99.90;;;;;;5009170;28;20033;-76
2022/05/29 01:22:20;;;;;;;5.43;3.47;;;6.70;99.90;;;;;;5007600;28;20048;-75
2022/05/29 01:24:55;;;;;;;7.80;4.13;;;6.70;99.90;;;;;;5000638;28;20026;-75
2022/05/29 01:27:39;;;;;;;8.48;3.60;;;6.60;99.90;;;;;;5001190;28;20100;-75
2022/05/29 01:30:21;;;;;;;7.10;3.78;;;6.50;99.90;;;;;;5003482;28;20053;-76
2022/05/29 01:33:30;;;;;;;6.63;3.70;;;6.60;99.90;;;;;;5019102;28;20036;-76
2022/05/29 01:36:09;;;;;;;7.55;3.75;;;6.50;99.90;;;;;;4995091;28;20046;-76
2022/05/29 01:38:51;;;;;;;3.33;3.03;;;6.50;99.90;;;;;;5020138;28;20483;-75
2022/05/29 01:41:30;;;;;;;7.30;4.25;;;6.50;99.90;;;;;;5032218;28;20030;-75
2022/05/29 01:44:17;;;;;;;8.40;4.25;;;6.40;99.90;;;;;;5000210;28;20125;-75
2022/05/29 01:46:45;;;;;;;5.00;2.90;;;6.30;99.90;;;;;;5008798;28;20029;-75
2022/05/29 01:49:16;;;;;;;9.55;4.03;;;6.30;99.90;;;;;;5011135;28;20057;-75
2022/05/29 01:52:03;;;;;;;6.43;3.15;;;6.30;99.90;;;;;;5014850;28;20034;-75
2022/05/29 01:54:54;;;;;;;5.80;2.55;;;6.30;99.90;;;;;;5015685;28;20467;-75
2022/05/29 01:57:36;;;;;;;4.53;2.80;;;6.20;99.90;;;;;;5024592;28;20150;-75
2022/05/29 02:00:07;;;;;;;5.97;3.17;;;6.20;99.90;;;;;;5029026;28;20037;-75
2022/05/29 02:02:59;;;;;;;4.75;2.45;;;6.10;99.90;;;;;;5002680;28;20056;-75
2022/05/29 02:05:28;;;;;;;5.50;2.42;;;6.00;99.90;;;;;;5032254;28;20037;-76
2022/05/29 02:08:25;;;;;;;4.57;2.58;;;6.00;99.90;;;;;;5020510;28;20026;-75
2022/05/29 02:11:00;;;;;;;5.13;3.05;;;6.00;99.90;;;;;;4993635;28;20042;-75
2022/05/29 02:13:39;;;;;;;4.75;3.05;;;5.90;99.90;;;;;;4999436;28;20045;-75
2022/05/29 02:16:12;;;;;;;6.22;2.47;;;5.90;99.90;;;;;;5015202;28;20033;-74
2022/05/29 02:19:12;;;;;;;3.50;3.20;;;5.90;99.90;;;;;;5009666;28;20037;-75
2022/05/29 02:21:38;;;;;;;5.13;3.08;;;5.80;99.90;;;;;;4999466;28;20034;-75
2022/05/29 02:24:09;;;;;;;6.43;2.85;;;5.80;99.90;;;;;;5025756;28;20033;-74
2022/05/29 02:26:40;;;;;;;;;;;5.80;99.90;;;;;;5011650;28;20132;-76
2022/05/29 02:29:11;;;;;;;4.30;3.03;;;5.70;99.90;;;;;;5004513;28;19921;-75
2022/05/29 02:31:42;;;;;;;6.05;3.25;;;5.70;99.90;;;;;;5002562;28;20033;-74
2022/05/29 02:34:20;;;;;;;4.90;3.63;;;5.70;99.90;;;;;;5015158;28;20579;-75
2022/05/29 02:36:54;;;;;;;3.95;3.03;;;5.60;99.90;;;;;;5004652;28;20066;-75
2022/05/29 02:39:42;;;;;;;4.25;3.13;;;5.60;99.90;;;;;;5023109;28;20029;-75
2022/05/29 02:42:33;;;;;;;5.95;3.45;;;5.60;99.90;;;;;;5001461;28;20053;-75
2022/05/29 02:45:07;;;;;;;4.65;2.80;;;5.60;99.90;;;;;;5013392;28;20037;-76
2022/05/29 02:47:53;;;;;;;5.93;3.38;;;5.60;99.90;;;;;;5001197;28;20132;-75
2022/05/29 02:50:35;;;;;;;4.35;2.80;;;5.60;99.90;;;;;;5019096;28;20127;-75
2022/05/29 02:53:07;;;;;;;5.97;3.03;;;5.50;99.90;;;;;;5015548;28;20038;-75
2022/05/29 02:55:34;;;;;;;5.13;2.78;;;5.50;99.90;;;;;;5018149;28;20284;-75
2022/05/29 02:58:03;;;;;;;5.28;3.50;;;5.50;99.90;;;;;;5005455;28;20038;-74
2022/05/29 03:00:35;;;;;;;4.80;2.90;;;5.50;99.90;;;;;;5018855;28;20036;-74
2022/05/29 03:03:17;;;;;;;3.85;2.67;;;5.40;99.90;;;;;;5012536;28;20108;-75
2022/05/29 03:05:48;;;;;;;;;;;5.40;99.90;;;;;;5021242;28;20054;-75
2022/05/29 03:08:41;;;;;;;4.75;2.22;;;5.40;99.90;;;;;;5020882;28;19913;-74
2022/05/29 03:11:44;;;;;;;9.23;2.83;;;5.30;99.90;;;;;;5028080;28;20484;-73
2022/05/29 03:14:32;;;;;;;6.10;2.50;;;5.30;99.90;;;;;;5004328;28;20049;-73
2022/05/29 03:17:11;;;;;;;6.78;2.20;;;5.20;99.90;;;;;;5017105;28;20040;-73
2022/05/29 03:19:45;;;;;;;3.72;2.28;;;5.30;99.90;;;;;;5017085;28;20124;-73
2022/05/29 03:22:20;;;;;;;3.83;2.60;;;5.20;99.90;;;;;;5033962;28;20037;-72
2022/05/29 03:25:01;;;;;;;3.67;2.50;;;5.20;99.90;;;;;;5038401;28;20024;-74
2022/05/29 03:27:47;;;;;;;;;;;5.20;99.90;;;;;;5014256;28;20033;-73
2022/05/29 03:30:12;;;;;;;3.70;2.13;;;5.20;99.90;;;;;;5020584;28;19913;-73
2022/05/29 03:32:39;;;;;;;5.95;2.55;;;5.30;99.90;;;;;;5011738;28;20029;-73
2022/05/29 03:35:36;;;;;;;5.13;2.17;;;5.30;99.90;;;;;;5010039;28;20025;-73
2022/05/29 03:38:03;;;;;;;6.43;2.67;;;5.30;99.90;;;;;;4981303;28;20132;-73
2022/05/29 03:40:31;;;;;;;4.57;2.83;;;5.30;99.90;;;;;;5003686;28;20100;-72
2022/05/29 03:42:57;;;;;;;5.03;1.90;;;5.30;99.90;;;;;;5017215;28;20053;-73
2022/05/29 03:45:24;;;;;;;4.82;2.47;;;5.30;99.90;;;;;;5020249;28;20059;-73
2022/05/29 03:47:49;;;;;;;6.85;2.47;;;5.20;99.90;;;;;;5015161;28;20033;-73
2022/05/29 03:50:18;;;;;;;4.43;2.08;;;5.20;99.90;;;;;;5015372;28;20029;-73
2022/05/29 03:52:45;;;;;;;4.03;2.30;;;5.10;99.90;;;;;;5016407;28;20038;-73
2022/05/29 03:55:11;;;;;;;3.75;2.55;;;5.10;99.90;;;;;;5018147;28;20057;-76
2022/05/29 03:57:37;;;;;;;2.90;2.30;;;5.10;99.90;;;;;;5001773;28;20393;-73
2022/05/29 04:00:05;;;;;;;3.00;2.50;;;5.10;99.90;;;;;;5008502;28;20033;-73
2022/05/29 04:02:30;;;;;;;4.25;2.55;;;5.10;99.90;;;;;;4992438;28;20041;-76
2022/05/29 04:04:56;;;;;;;3.70;2.27;;;5.10;99.90;;;;;;5017709;28;20041;-73
2022/05/29 04:12:03;;;;;;;3.13;2.25;;;5.10;99.90;;;;;;4994636;28;20593;-73
2022/05/29 04:12:52;;;;;;;;;;;5.10;99.90;;;;;;5014461;28;20028;-72
2022/05/29 04:15:17;;;;;;;;;;;5.10;99.90;;;;;;4992094;28;19913;-72
2022/05/29 04:17:43;;;;;;;;;;;5.10;99.90;;;;;;5012471;28;20023;-73
2022/05/29 04:20:09;;;;;;;;;;;5.00;99.90;;;;;;5015726;28;20387;-73
2022/05/29 04:22:34;;;;;;;;;;;5.10;99.90;;;;;;5005440;28;19913;-72
2022/05/29 04:25:00;;;;;;;;;;;5.10;99.90;;;;;;5018881;28;20456;-72
2022/05/29 04:27:25;;;;;;;;;;;5.10;99.90;;;;;;5006150;28;19925;-72
2022/05/29 04:29:51;;;;;;;;;;;5.10;99.90;;;;;;4992938;28;19944;-73
2022/05/29 04:35:00;;;;;;;;;;;5.20;99.90;;;;;;5001380;28;19928;-72
2022/05/29 04:37:27;;;;;;;;;;;5.20;99.90;;;;;;5017083;28;19917;-72
2022/05/29 04:39:53;;;;;;;;;;;5.20;99.90;;;;;;5018592;28;19935;-73
2022/05/29 04:42:18;;;;;;;;;;;5.20;99.90;;;;;;5004818;28;19909;-73
2022/05/29 04:44:44;;;;;;;;;;;5.20;99.90;;;;;;5012178;28;20426;-73
2022/05/29 04:47:09;;;;;;;;;;;5.30;99.90;;;;;;5007874;28;20374;-73
2022/05/29 04:49:38;;;;;;;;;;;5.30;99.90;;;;;;5022553;28;19920;-76
2022/05/29 04:52:05;;;;;;;;;;;5.30;99.90;;;;;;5034320;28;20170;-73
2022/05/29 04:54:32;;;;;;;;;;;5.40;99.90;;;;;;5003580;28;19925;-76
2022/05/29 04:56:57;;;;;;;;;;;5.40;99.90;;;;;;5013727;28;19917;-73
2022/05/29 04:59:23;;;;;;;;;;;5.50;99.90;;;;;;5026571;28;20078;-73
2022/05/29 05:01:49;;;;;;;;;;;5.60;99.90;;;;;;4998873;28;20364;-73
2022/05/29 05:04:14;;;;;;;;;;;5.60;99.90;;;;;;5009988;28;19917;-73
2022/05/29 05:06:39;;;;;;;;;;;5.70;99.90;;;;;;5013917;28;19916;-73
2022/05/29 05:09:05;;;;;;;;;;;5.80;99.90;;;;;;5021872;28;20407;-72
2022/05/29 05:11:32;;;;;;;;;;;5.90;99.90;;;;;;5027360;28;19914;-73
2022/05/29 05:13:57;;;;;;;;;;;5.90;99.90;;;;;;5008096;28;19932;-73
2022/05/29 05:16:23;;;;;;;;;;;6.00;99.90;;;;;;5015153;28;19913;-73
2022/05/29 05:18:48;;;;;;;;;;;6.10;99.90;;;;;;5030413;28;19912;-73
2022/05/29 05:21:14;;;;;;;;;;;6.10;99.90;;;;;;5019662;28;19959;-73
2022/05/29 05:23:40;;;;;;;;;;;6.20;99.90;;;;;;5007797;28;19917;-73
2022/05/29 05:26:10;;;;;;;;;;;6.30;99.90;;;;;;5020118;28;20606;-73
2022/05/29 05:28:35;;;;;;;6.30;2.13;;;6.40;99.90;;;;;;5027967;28;20003;-73
2022/05/29 05:31:01;;;;;;;3.65;1.80;;;6.40;99.90;;;;;;5034846;28;20113;-73
2022/05/29 05:33:26;;;;;;;2.38;2.13;;;6.60;99.90;;;;;;5017884;28;20045;-72
2022/05/29 05:35:52;;;;;;;4.57;2.17;;;6.60;99.90;;;;;;5020069;28;20041;-73
2022/05/29 05:38:18;;;;;;;3.70;1.77;;;6.70;99.90;;;;;;5014613;28;20516;-73
2022/05/29 05:40:43;;;;;;;2.50;1.67;;;6.80;99.90;;;;;;5011636;28;20030;-73
2022/05/29 05:43:09;;;;;;;4.90;2.00;;;6.90;99.90;;;;;;4998880;28;20030;-73
2022/05/29 05:45:35;;;;;;;10.10;2.88;;;7.00;99.90;;;;;;5002489;28;20026;-73
2022/05/29 05:48:00;;;;;;;6.70;1.70;;;7.10;99.90;;;;;;5000667;28;20060;-73
2022/05/29 05:50:26;;;;;;;4.95;1.60;;;7.20;99.90;;;;;;5030156;28;20485;-73
2022/05/29 05:52:52;;;;;;;4.78;1.63;;;7.30;99.90;;;;;;5017363;28;20026;-73
2022/05/29 05:55:18;;;;;;;3.08;1.30;;;7.40;99.90;;;;;;5018989;28;20546;-73
2022/05/29 05:57:43;;;;;;;5.32;1.92;;;7.50;99.90;;;;;;5008811;28;20030;-73
2022/05/29 06:00:13;;;;;;;4.78;1.60;;;7.50;99.90;;;;;;5026148;28;20037;-74
2022/05/29 06:02:42;;;;;;;3.33;1.35;;;7.60;99.90;;;;;;5026212;28;20061;-73
2022/05/29 06:05:13;;;;;;;6.35;1.52;;;7.70;99.90;;;;;;5025701;28;20033;-74
2022/05/29 06:07:39;;;;;;;10.90;1.90;;;7.80;99.90;;;;;;5013802;28;20033;-73
2022/05/29 06:10:07;;;;;;;4.13;1.65;;;8.10;99.90;;;;;;5025774;28;20104;-72
2022/05/29 06:12:32;;;;;;;2.20;0.90;;;8.20;99.90;;;;;;5017203;28;20099;-73
2022/05/29 06:14:58;;;;;;;7.32;1.60;;;8.30;99.90;;;;;;5024346;28;20041;-73
2022/05/29 06:17:24;;;;;;;6.40;1.58;;;8.30;99.90;;;;;;5018235;28;20104;-73
2022/05/29 06:19:50;;;;;;;6.57;1.77;;;8.40;99.90;;;;;;5024872;28;20087;-72
2022/05/29 06:22:15;;;;;;;5.28;1.60;;;8.50;99.90;;;;;;5011852;28;20033;-73
2022/05/29 06:24:41;;;;;;;6.05;1.48;;;8.60;99.90;;;;;;5004887;28;20111;-73
2022/05/29 06:27:07;;;;;;;5.15;1.50;;;8.70;99.90;;;;;;5020427;28;20044;-73
2022/05/29 06:29:33;;;;;;;3.95;1.25;;;8.90;99.90;;;;;;5006757;28;20042;-73
2022/05/29 06:32:04;;;;;;;4.38;1.30;;;8.90;99.90;;;;;;5018535;28;20029;-73
2022/05/29 06:34:32;;;;;;;2.50;1.27;;;9.00;99.90;;;;;;5015342;28;20037;-73
2022/05/29 06:36:58;;;;;;;2.88;1.27;;;9.10;99.90;;;;;;5008787;28;20049;-73
2022/05/29 06:39:23;;;;;;;4.90;2.15;;;9.20;99.90;;;;;;5004915;28;20069;-73
2022/05/29 06:41:49;;;;;;;9.90;2.15;;;9.30;99.90;;;;;;5005657;28;20082;-74
2022/05/29 06:44:15;;;;;;;4.88;2.97;;;9.30;99.90;;;;;;5011255;28;20087;-73
2022/05/29 06:46:40;;;;;;;6.85;2.42;;;9.40;99.90;;;;;;5020845;28;20464;-73
2022/05/29 06:49:06;;;;;;;5.10;2.45;;;9.60;99.90;;;;;;5022936;28;20036;-76
2022/05/29 06:51:32;;;;;;;2.90;1.85;;;9.60;99.90;;;;;;5020946;28;20099;-74
2022/05/29 06:54:00;;;;;;;5.45;1.20;;;9.70;99.90;;;;;;5027374;28;20065;-73
2022/05/29 06:56:25;;;;;;;6.50;1.10;;;9.80;99.90;;;;;;5027154;28;20081;-73
2022/05/29 06:58:53;;;;;;;3.42;1.00;;;10.10;99.90;;;;;;5026219;28;20124;-73
2022/05/29 07:07:11;;;;;;;4.13;0.75;;;10.60;99.90;;;;;;5006443;28;20060;-74
2022/05/29 07:09:39;;;;;;;4.25;0.90;;;10.70;99.90;;;;;;5012135;28;20026;-73
2022/05/29 07:12:19;;;;;;;2.03;0.65;;;10.80;99.90;;;;;;5004469;28;20099;-77
2022/05/29 07:14:52;;;;;;;5.00;0.80;;;10.90;99.90;;;;;;5004069;28;20045;-74
2022/05/29 07:17:22;;;;;;;3.03;1.05;;;11.00;99.90;;;;;;5008787;28;20207;-74
2022/05/29 07:19:47;;;;;;;5.88;2.53;;;11.10;99.90;;;;;;5010953;28;20132;-73
2022/05/29 07:22:14;;;;;;;4.65;1.38;;;11.20;99.90;;;;;;5008877;28;20118;-73
2022/05/29 07:24:41;;;;;;;14.10;4.35;;;11.40;99.90;;;;;;5030011;28;20033;-75
2022/05/29 07:27:07;;;;;;;3.97;0.77;;;11.50;99.90;;;;;;5019746;28;20044;-78
2022/05/29 07:29:34;;;;;;;1.40;0.80;;;12.10;99.90;;;;;;5014482;28;20025;-76
2022/05/29 07:32:00;;;;;;;4.07;0.80;;;12.60;99.90;;;;;;5024431;28;20036;-76
2022/05/29 07:34:27;;;;;;;3.35;1.10;;;13.60;99.90;;;;;;5018035;28;20145;-76
2022/05/29 07:36:53;;;;;;;1.77;1.10;;;14.80;95.00;;;;;;5016838;28;20060;-76
2022/05/29 07:39:21;;;;;;;5.38;1.15;;;14.60;93.90;;;;;;5021245;28;20060;-77
2022/05/29 07:44:31;;;;;;;3.03;0.85;;;16.20;86.50;;;;;;5021956;28;20113;-76
2022/05/29 07:46:56;;;;;;;4.05;0.68;;;19.10;71.30;;;;;;5014045;28;20565;-75
2022/05/29 07:49:23;;;;;;;3.25;0.75;;;23.10;56.80;;;;;;5020966;28;20042;-76
2022/05/29 07:51:49;;;;;;;1.02;0.60;;;25.30;44.00;;;;;;5002693;28;20038;-76
2022/05/29 07:54:15;;;;;;;1.85;0.38;;;24.30;41.60;;;;;;5033256;28;20046;-75
2022/05/29 07:56:41;;;;;;;4.75;0.57;;;21.60;46.30;;;;;;5015889;28;20052;-77
2022/05/29 07:59:06;;;;;;;4.07;0.57;;;19.30;55.70;;;;;;5007709;28;20037;-76
2022/05/29 08:01:32;;;;;;;2.08;0.60;;;18.50;57.70;;;;;;4991628;28;20038;-76
2022/05/29 08:03:58;;;;;;;2.63;0.57;;;17.60;64.70;;;;;;5009203;28;20440;-80
2022/05/29 08:06:25;;;;;;;0.98;0.38;;;20.80;62.10;;;;;;5035435;28;20041;-75
2022/05/29 08:08:50;;;;;;;2.22;0.40;;;23.60;46.90;;;;;;5015293;28;20617;-77
2022/05/29 08:11:17;;;;;;;2.85;0.40;;;26.90;38.90;;;;;;5039027;28;20033;-76
2022/05/29 08:13:44;;;;;;;3.72;0.88;;;29.70;35.90;;;;;;5004425;28;20148;-74
2022/05/29 08:16:10;;;;;;;5.03;1.02;;;31.30;32.60;;;;;;5014788;28;20025;-76
2022/05/29 08:18:36;;;;;;;1.40;0.20;;;31.60;31.10;;;;;;5013770;28;20140;-73
2022/05/29 08:21:02;;;;;;;2.63;0.35;;;33.20;29.70;;;;;;5011569;28;20033;-72
2022/05/29 08:23:28;;;;;;;1.00;0.30;;;32.90;27.80;;;;;;5022213;28;20509;-77
2022/05/29 08:31:13;;;;;;;3.33;0.70;;;30.70;30.40;;;;;;5011690;28;20120;-75
2022/05/29 08:33:40;;;;;;;1.60;0.40;;;28.00;32.20;;;;;;5018781;28;19921;-73
2022/05/29 08:36:09;;;;;;;2.33;0.40;;;24.60;34.20;;;;;;5016325;28;20033;-75
2022/05/29 08:38:39;;;;;;;2.50;0.60;;;22.70;39.10;;;;;;5012724;28;20041;-75
2022/05/29 08:41:10;;;;;;;4.10;0.55;;;25.50;41.60;;;;;;5010154;28;20035;-73
2022/05/29 08:43:38;;;;;;;2.15;0.85;;;26.70;34.60;;;;;;5008414;28;20177;-71
2022/05/29 08:46:14;;;;;;;;;;;28.60;33.20;;;;;;5008511;28;20533;-74
2022/05/29 08:48:39;;;;;;;2.75;0.47;;;30.20;29.70;;;;;;5020373;28;20046;-75
2022/05/29 08:51:25;;;;;;;1.50;0.50;;;30.60;29.30;;;;;;5013800;28;20366;-74
2022/05/29 08:54:09;;;;;;;1.30;0.20;;;31.90;33.90;;;;;;5012323;28;20265;-77
2022/05/29 08:56:45;;;;;;;;;;;32.10;27.30;;;;;;5011940;28;20501;-77
2022/05/29 08:59:14;;;;;;;2.78;0.50;;;32.20;29.30;;;;;;5013805;28;24083;-78
2022/05/29 09:02:04;;;;;;;1.42;0.30;;;31.50;28.60;;;;;;5014087;28;20393;-75
2022/05/29 09:04:42;;;;;;;1.35;0.45;;;32.00;29.20;;;;;;5001133;28;20033;-74
2022/05/29 09:07:10;;;;;;;0.93;0.30;;;31.60;30.00;;;;;;5005180;28;20052;-78
2022/05/29 09:09:57;;;;;;;3.45;0.50;;;29.00;28.40;;;;;;5014550;28;20025;-76
2022/05/29 09:12:31;;;;;;;3.25;0.63;;;28.60;30.60;;;;;;5006453;28;20102;-73
2022/05/29 09:15:12;;;;;;;2.30;0.70;;;27.50;32.80;;;;;;5018292;28;20040;-75
2022/05/29 09:18:04;;;;;;;3.13;0.50;;;26.60;34.80;;;;;;5033822;28;21657;-74
2022/05/29 09:20:36;;;;;;;1.70;0.55;;;24.70;35.30;;;;;;5026672;28;20469;-75
2022/05/29 09:23:03;;;;;;;;;;;22.10;41.20;;;;;;5007957;28;20052;-75
2022/05/29 09:25:32;;;;;;;2.45;0.60;;;20.90;44.20;;;;;;5009311;28;20291;-74
2022/05/29 09:28:01;;;;;;;2.38;0.80;;;19.40;47.90;;;;;;5006306;28;20022;-75
2022/05/29 09:30:28;;;;;;;1.95;0.50;;;18.50;53.00;;;;;;4997543;28;20248;-75
2022/05/29 09:33:00;;;;;;;1.95;0.90;;;18.10;55.50;;;;;;5004650;28;20056;-76
2022/05/29 09:35:58;;;;;;;4.13;0.40;;;18.30;58.50;;;;;;5009717;28;20037;-77
2022/05/29 09:38:26;;;;;;;7.45;0.70;;;18.50;52.80;;;;;;5016545;28;20075;-76
2022/05/29 09:41:50;;;;;;;1.33;0.43;;;18.50;56.40;;;;;;5011337;28;20038;-75
2022/05/29 09:44:18;;;;;;;2.45;0.40;;;19.00;50.80;;;;;;4968402;28;20034;-75
2022/05/29 09:46:49;;;;;;;1.73;0.43;;;19.60;48.50;;;;;;4965257;28;20065;-76
2022/05/29 09:49:41;;;;;;;3.17;0.43;;;20.10;50.60;;;;;;4999404;28;20115;-76
2022/05/29 09:52:17;;;;;;;1.13;0.25;;;20.10;48.90;;;;;;5012456;28;20453;-78
2022/05/29 09:54:56;;;;;;;4.88;0.70;;;19.50;48.60;;;;;;5026084;28;20307;-77
2022/05/29 09:57:49;;;;;;;2.58;0.60;;;19.10;55.20;;;;;;5026444;28;20035;-77
2022/05/29 10:00:30;;;;;;;4.63;0.60;;;18.60;55.60;;;;;;5019079;28;20041;-78
2022/05/29 10:02:56;;;;;;;5.03;0.65;;;18.40;59.90;;;;;;5019637;28;20034;-78
2022/05/29 10:05:28;;;;;;;2.40;0.50;;;18.20;64.40;;;;;;5011126;28;20045;-77
2022/05/29 10:07:57;;;;;;;1.77;0.40;;;18.30;56.50;;;;;;5021757;28;20207;-78
2022/05/29 10:10:26;;;;;;;1.05;0.40;;;18.40;58.00;;;;;;5040295;28;20595;-77
2022/05/29 10:12:57;;;;;;;2.97;0.60;;;18.30;60.90;;;;;;5007345;28;20045;-76
2022/05/29 10:15:25;;;;;;;2.45;0.40;;;18.20;57.60;;;;;;5017770;28;20092;-77
2022/05/29 10:18:00;;;;;;;3.05;0.55;;;18.00;60.00;;;;;;5022053;28;20061;-77
2022/05/29 10:20:30;;;;;;;2.20;0.35;;;17.70;56.90;;;;;;5015332;28;20053;-75
2022/05/29 10:23:15;;;;;;;0.38;0.25;;;17.80;64.70;;;;;;5008632;28;20025;-75
2022/05/29 10:26:03;;;;;;;1.65;0.28;;;17.80;67.40;;;;;;5007664;28;20029;-75
2022/05/29 10:28:34;;;;;;;1.95;0.38;;;17.30;63.00;;;;;;5025317;28;20065;-74
2022/05/29 10:31:05;;;;;;;1.27;0.47;;;17.10;59.90;;;;;;5011658;28;20480;-75
2022/05/29 10:33:33;;;;;;;;;;;16.90;68.20;;;;;;5006659;28;20041;-77
2022/05/29 10:36:13;;;;;;;2.47;0.57;;;17.10;65.50;;;;;;5004100;28;19925;-75
2022/05/29 10:38:39;;;;;;;1.30;0.40;;;18.40;70.90;;;;;;5005756;28;20037;-75
2022/05/29 10:41:07;;;;;;;1.63;0.30;;;20.60;56.90;;;;;;5014376;28;20033;-76
2022/05/29 10:43:54;;;;;;;2.17;0.50;;;22.60;52.00;;;;;;5002341;28;20045;-74
2022/05/29 10:46:21;;;;;;;2.92;0.60;;;23.80;45.10;;;;;;5017767;28;20658;-74
2022/05/29 10:49:27;;;;;;;1.23;0.40;;;24.00;44.60;;;;;;4988677;28;20033;-74
2022/05/29 10:52:18;;;;;;;0.63;0.30;;;23.70;45.70;;;;;;5003005;28;20045;-76
2022/05/29 10:55:06;;;;;;;2.03;0.70;;;22.90;41.70;;;;;;5010313;28;20065;-77
2022/05/29 10:57:37;;;;;;;2.63;0.80;;;22.00;43.80;;;;;;5023418;28;20966;-76
2022/05/29 11:00:13;;;;;;;;;;;20.90;48.00;;;;;;5017677;28;20116;-76
2022/05/29 11:05:32;;;;;;;3.53;0.38;;;19.60;47.90;;;;;;5020156;28;20043;-77
2022/05/29 11:08:06;;;;;;;1.50;0.50;;;18.80;52.80;;;;;;5012764;28;20051;-75
2022/05/29 11:11:07;;;;;;;2.28;0.80;;;18.60;54.40;;;;;;5044452;28;20037;-76
2022/05/29 11:14:03;;;;;;;9.50;2.95;;;18.50;53.50;;;;;;4999620;28;20058;-78
2022/05/29 11:16:54;;;;;;;3.70;0.50;;;18.10;58.70;;;;;;5006068;28;20079;-76
2022/05/29 11:19:46;;;;;;;13.05;2.72;;;17.70;55.10;;;;;;5022039;28;20061;-76
2022/05/29 11:22:23;;;;;;;5.28;1.67;;;17.40;64.40;;;;;;5004595;28;20103;-77
2022/05/29 11:25:11;;;;;;;0.80;0.40;;;17.20;61.70;;;;;;5008519;28;20022;-77
2022/05/29 11:28:14;;;;;;;1.85;0.32;;;17.10;63.20;;;;;;5008993;28;20041;-75
2022/05/29 11:30:59;;;;;;;1.42;0.55;;;17.20;57.80;;;;;;5013971;28;20646;-76
2022/05/29 11:33:41;;;;;;;1.38;0.50;;;17.40;58.40;;;;;;5018806;28;20097;-76
2022/05/29 11:36:30;;;;;;;0.73;0.40;;;17.60;57.40;;;;;;5025514;28;20587;-77
2022/05/29 11:39:09;;;;;;;2.38;0.40;;;17.60;55.90;;;;;;5044349;28;20021;-79
2022/05/29 11:41:47;;;;;;;1.77;0.30;;;18.30;66.80;;;;;;5005306;28;20633;-76
2022/05/29 11:44:22;;;;;;;1.23;0.32;;;19.40;53.60;;;;;;5002237;28;20604;-77
2022/05/29 11:52:37;;;;;;;3.75;1.10;;;20.30;51.90;;;;;;5001562;28;20120;-76
2022/05/29 11:55:18;;;;;;;0.85;0.30;;;20.20;47.90;;;;;;5013996;28;20042;-76
2022/05/29 11:57:53;;;;;;;1.85;0.50;;;20.10;49.90;;;;;;5000771;28;20079;-75
2022/05/29 12:00:29;;;;;;;0.95;0.40;;;19.80;49.60;;;;;;5000064;28;20070;-77
2022/05/29 12:03:18;;;;;;;1.02;0.38;;;19.60;52.20;;;;;;5011559;28;20128;-78
2022/05/29 12:05:48;;;;;;;1.98;0.50;;;20.00;53.30;;;;;;5001324;28;20033;-78
2022/05/29 12:08:34;;;;;;;2.45;0.60;;;20.30;49.10;;;;;;4988206;28;20132;-78
2022/05/29 12:11:28;;;;;;;2.58;1.40;;;19.90;53.60;;;;;;5015614;28;20451;-79
2022/05/29 12:14:05;;;;;;;1.75;0.40;;;19.80;47.60;;;;;;5010953;28;20060;-78
2022/05/29 12:16:34;;;;;;;0.65;0.20;;;19.60;51.30;;;;;;5017934;28;20050;-76
2022/05/29 12:19:06;;;;;;;1.65;0.25;;;20.00;49.20;;;;;;5016853;28;20036;-77
2022/05/29 12:21:52;;;;;;;1.05;0.40;;;19.90;52.80;;;;;;5004148;28;20029;-78
2022/05/29 12:24:28;;;;;;;0.47;0.35;;;19.50;52.20;;;;;;5004161;28;20046;-77
2022/05/29 12:27:00;;;;;;;0.63;0.20;;;18.80;51.20;;;;;;5004281;28;20161;-78
2022/05/29 12:29:54;;;;;;;0.63;0.20;;;18.90;58.70;;;;;;5014521;28;20124;-78
2022/05/29 12:32:26;;;;;;;2.65;0.28;;;18.70;52.80;;;;;;5013547;28;20032;-78
2022/05/29 12:35:02;;;;;;;0.45;0.10;;;18.70;59.00;;;;;;5018498;28;20060;-77
2022/05/29 12:37:49;;;;;;;0.73;0.10;;;18.50;53.50;;;;;;5004518;28;20040;-78
2022/05/29 12:40:48;;;;;;;1.45;0.30;;;18.50;51.00;;;;;;5014705;28;20037;-77
2022/05/29 12:43:33;;;;;;;0.40;0.20;;;18.30;52.20;;;;;;5013538;28;20030;-76
2022/05/29 12:46:02;;;;;;;0.10;0.10;;;18.90;64.90;;;;;;5008127;28;20107;-74
2022/05/29 12:48:53;;;;;;;1.15;0.28;;;19.90;51.50;;;;;;4988910;28;20413;-75
2022/05/29 12:51:53;;;;;;;1.13;0.28;;;20.50;49.80;;;;;;5009091;28;20710;-79
2022/05/29 12:54:32;;;;;;;0.30;0.10;;;20.40;49.50;;;;;;5014078;28;20734;-75
2022/05/29 12:57:29;;;;;;;2.30;0.60;;;20.20;47.90;;;;;;4999045;28;20040;-78
2022/05/29 13:00:29;;;;;;;1.40;0.17;;;20.10;51.30;;;;;;5019358;28;20154;-77
2022/05/29 13:03:36;;;;;;;0.98;0.20;;;19.10;47.10;;;;;;5011797;28;20456;-76
2022/05/29 13:06:05;;;;;;;3.50;0.30;;;18.60;48.90;;;;;;5002519;28;20112;-77
2022/05/29 13:08:50;;;;;;;0.40;0.20;;;18.10;53.30;;;;;;4998603;28;20121;-78
2022/05/29 13:11:22;;;;;;;0.88;0.30;;;17.70;53.90;;;;;;5019241;28;20052;-78
2022/05/29 13:13:52;;;;;;;2.33;0.15;;;17.60;53.90;;;;;;5007414;28;20058;-76
2022/05/29 13:16:38;;;;;;;1.00;0.25;;;17.70;56.70;;;;;;5005319;28;20443;-79
2022/05/29 13:19:14;;;;;;;2.90;0.30;;;18.70;57.70;;;;;;5010913;28;20037;-77
2022/05/29 13:22:00;;;;;;;0.63;0.30;;;20.10;62.80;;;;;;5014844;28;20112;-81
2022/05/29 13:24:38;;;;;;;1.08;0.20;;;21.20;52.20;;;;;;5018447;28;20036;-77
2022/05/29 13:27:09;;;;;;;0.75;0.20;;;21.50;48.70;;;;;;5003857;28;20033;-77
2022/05/29 13:29:55;;;;;;;0.88;0.25;;;21.10;42.30;;;;;;5014975;28;20194;-76
2022/05/29 13:32:24;;;;;;;1.67;0.47;;;20.50;46.10;;;;;;4995732;28;20460;-79
2022/05/29 13:35:02;;;;;;;0.85;0.20;;;19.70;51.20;;;;;;5008574;28;20053;-78
2022/05/29 13:37:47;;;;;;;0.55;0.30;;;19.40;57.20;;;;;;5032995;28;20041;-77
2022/05/29 13:40:31;;;;;;;0.93;0.38;;;19.20;53.70;;;;;;5007602;28;22388;-80
2022/05/29 13:43:14;;;;;;;1.02;0.30;;;18.70;50.90;;;;;;5008645;28;20041;-77
2022/05/29 13:45:43;;;;;;;0.50;0.20;;;18.60;50.00;;;;;;5019003;28;20089;-78
2022/05/29 13:48:30;;;;;;;3.60;0.43;;;19.10;54.30;;;;;;5017844;28;20374;-77
2022/05/29 13:51:03;;;;;;;0.82;0.35;;;20.00;48.40;;;;;;5016361;28;20650;-77
2022/05/29 13:53:46;;;;;;;0.90;0.32;;;20.60;45.50;;;;;;5017180;28;20116;-78
2022/05/29 13:56:16;;;;;;;0.45;0.20;;;21.00;43.00;;;;;;4312093;28;10000476;-76
2022/05/29 14:04:45;;;;;;;0.65;0.47;;;20.00;52.60;;;;;;5010207;28;20055;-79
2022/05/29 14:07:13;;;;;;;1.20;0.30;;;19.00;51.30;;;;;;5012155;28;20037;-78
2022/05/29 14:10:16;;;;;;;2.05;0.30;;;18.70;56.70;;;;;;5013940;28;20025;-77
2022/05/29 14:13:06;;;;;;;1.88;0.30;;;18.00;57.40;;;;;;5015634;28;20080;-78